Time;durP1;ratioP1;P1;durP2;ratioP2;P2;SDS_P1;SDS_P2;PMS_P1;PMS_P2;Temp;Humidity;BMP_temperature;BMP_pressure;BME280_temperature;BME280_humidity;BME280_pressure;Samples;Min_cycle;Max_cycle;Signal;HPM_P1;HPM_P2
2022/10/08 00:00:41;;;;;;;;;3.33;3.00;;;;;15.00;57.42;101425.28;5029290;28;45552;-61
2022/10/08 00:03:06;;;;;;;;;4.00;3.00;;;;;14.97;57.38;101423.66;5022676;28;47386;-62
2022/10/08 00:05:32;;;;;;;;;7.00;4.00;;;;;14.95;57.45;101427.34;5026490;28;45513;-62
2022/10/08 00:07:57;;;;;;;;;4.33;4.33;;;;;14.94;57.67;101431.00;5024292;28;45738;-61
2022/10/08 00:10:22;;;;;;;;;3.67;3.67;;;;;14.93;57.66;101432.81;5026482;28;45556;-59
2022/10/08 00:12:48;;;;;;;;;4.00;4.00;;;;;14.92;57.71;101433.78;5024554;28;48552;-64
2022/10/08 00:15:14;;;;;;;;;4.33;4.33;;;;;14.88;57.39;101431.38;5028045;28;45314;-66
2022/10/08 00:17:39;;;;;;;;;4.00;4.00;;;;;14.88;57.60;101442.97;5025172;28;45597;-60
2022/10/08 00:20:05;;;;;;;;;5.00;3.33;;;;;14.87;57.81;101441.22;5015944;28;45206;-56
2022/10/08 00:22:30;;;;;;;;;3.67;2.33;;;;;14.79;57.60;101427.44;5019069;28;45922;-62
2022/10/08 00:24:56;;;;;;;;;3.67;3.67;;;;;14.85;57.81;101435.13;5029773;28;46132;-56
2022/10/08 00:27:25;;;;;;;;;2.67;2.33;;;;;14.84;57.55;101445.88;5030198;28;45219;-53
2022/10/08 00:29:51;;;;;;;;;3.00;2.00;;;;;14.81;57.95;101435.38;5023840;28;45537;-59
2022/10/08 00:32:18;;;;;;;;;5.67;4.00;;;;;14.80;58.29;101455.06;5025360;28;45555;-61
2022/10/08 00:34:46;;;;;;;;;3.67;3.67;;;;;14.75;58.14;101444.66;5015413;28;45613;-65
2022/10/08 00:37:12;;;;;;;;;6.67;5.00;;;;;14.71;58.30;101435.94;5018669;28;45673;-61
2022/10/08 00:39:38;;;;;;;;;2.67;2.67;;;;;14.70;57.89;101434.19;5015508;28;45588;-60
2022/10/08 00:42:03;;;;;;;;;5.67;2.00;;;;;14.70;58.31;101438.69;5033982;28;45357;-61
2022/10/08 00:44:54;;;;;;;;;3.00;3.00;;;;;14.69;57.89;101448.53;5031501;28;45469;-61
2022/10/08 00:47:28;;;;;;;;;3.67;2.33;;;;;14.67;58.11;101439.75;5037129;28;45453;-59
2022/10/08 00:49:58;;;;;;;;;5.00;4.00;;;;;14.66;58.68;101447.88;5036678;28;45554;-60
2022/10/08 00:52:27;;;;;;;;;2.33;2.33;;;;;14.64;58.82;101442.59;5037456;28;46253;-60
2022/10/08 00:54:53;;;;;;;;;4.00;3.00;;;;;14.63;58.53;101446.25;5030189;28;45709;-62
2022/10/08 00:57:20;;;;;;;;;3.00;3.00;;;;;14.54;58.78;101438.75;5028181;28;45323;-63
2022/10/08 00:59:46;;;;;;;;;3.00;1.67;;;;;14.57;59.19;101446.59;5030310;28;46066;-59
2022/10/08 01:02:12;;;;;;;;;4.00;2.67;;;;;14.38;59.25;101414.66;5036883;28;45917;-56
2022/10/08 01:04:39;;;;;;;;;2.00;2.00;;;;;14.50;59.12;101431.84;5026525;28;45383;-56
2022/10/08 01:07:35;;;;;;;;;3.33;2.67;;;;;14.51;59.47;101446.97;5032586;28;45557;-60
2022/10/08 01:10:19;;;;;;;;;8.33;4.00;;;;;14.50;59.99;101439.03;5024271;28;45596;-53
2022/10/08 01:12:59;;;;;;;;;2.00;2.00;;;;;14.47;59.85;101441.88;5026596;28;46285;-54
2022/10/08 01:15:32;;;;;;;;;8.00;1.67;;;;;14.45;59.67;101449.97;5021241;28;45474;-55
2022/10/08 01:18:07;;;;;;;;;2.33;2.33;;;;;14.43;59.96;101446.50;5045127;28;45521;-58
2022/10/08 01:20:33;;;;;;;;;4.00;2.00;;;;;14.42;59.83;101445.63;5016336;28;45470;-57
2022/10/08 01:23:49;;;;;;;;;4.33;2.67;;;;;14.42;60.19;101439.44;5017808;28;46008;-57
2022/10/08 01:26:33;;;;;;;;;3.00;3.00;;;;;14.39;60.47;101435.13;5005739;28;45580;-64
2022/10/08 01:29:07;;;;;;;;;2.00;2.00;;;;;14.35;60.24;101438.09;5029163;28;45572;-64
2022/10/08 01:31:40;;;;;;;;;5.00;3.00;;;;;14.37;60.85;101441.53;5023036;28;45426;-64
2022/10/08 01:34:10;;;;;;;;;2.33;2.00;;;;;14.37;61.05;101433.50;5034278;28;46213;-66
2022/10/08 01:36:42;;;;;;;;;2.33;1.00;;;;;14.36;60.84;101429.97;5040113;28;45499;-62
2022/10/08 01:39:12;;;;;;;;;2.00;2.00;;;;;14.35;61.03;101430.06;5031870;28;46069;-65
2022/10/08 01:41:39;;;;;;;;;3.00;3.00;;;;;14.31;61.58;101424.00;5025192;28;46217;-65
2022/10/08 01:44:14;;;;;;;;;6.00;3.00;;;;;14.34;61.34;101436.34;5027314;28;46135;-64
2022/10/08 01:46:45;;;;;;;;;2.00;2.00;;;;;14.34;61.62;101433.69;5023503;28;45656;-65
2022/10/08 01:49:16;;;;;;;;;2.33;2.33;;;;;14.31;61.70;101429.34;5025605;28;45402;-63
2022/10/08 01:51:59;;;;;;;;;2.00;2.00;;;;;14.29;62.07;101428.56;5026880;28;45574;-62
2022/10/08 01:54:29;;;;;;;;;2.33;2.33;;;;;14.20;62.13;101406.88;5025645;28;46265;-65
2022/10/08 01:56:57;;;;;;;;;1.00;1.00;;;;;14.27;62.08;101429.63;5031676;28;45485;-63
2022/10/08 01:59:31;;;;;;;;;2.33;2.33;;;;;14.24;62.13;101429.81;5027085;28;45421;-63
2022/10/08 02:01:57;;;;;;;;;3.33;2.00;;;;;14.29;62.25;101425.03;5025156;28;45506;-66
2022/10/08 02:04:32;;;;;;;;;2.00;2.00;;;;;14.22;62.64;101411.19;5032036;28;46532;-57
2022/10/08 02:07:01;;;;;;;;;6.00;4.00;;;;;14.23;62.54;101417.38;5023923;28;45336;-58
2022/10/08 02:09:29;;;;;;;;;2.00;2.00;;;;;14.24;62.99;101419.09;5019379;28;45422;-65
2022/10/08 02:11:55;;;;;;;;;3.00;2.00;;;;;14.24;63.05;101416.44;5021871;28;45596;-61
2022/10/08 02:14:25;;;;;;;;;1.67;1.67;;;;;14.20;62.93;101414.91;5027677;28;47864;-62
2022/10/08 02:17:13;;;;;;;;;1.67;1.67;;;;;14.24;62.98;101416.44;5027398;28;45572;-64
2022/10/08 02:19:51;;;;;;;;;3.00;1.33;;;;;14.29;62.51;101422.38;5021784;28;45470;-65
2022/10/08 02:22:22;;;;;;;;;3.67;2.00;;;;;14.33;62.67;101421.25;5034370;28;45436;-63
2022/10/08 02:24:55;;;;;;;;;0.33;0.33;;;;;14.34;62.56;101420.31;5026154;28;45463;-64
2022/10/08 02:27:41;;;;;;;;;2.33;1.00;;;;;14.35;62.75;101422.03;5024275;28;45271;-65
2022/10/08 02:30:10;;;;;;;;;3.00;2.00;;;;;14.37;63.22;101425.47;5014973;28;45597;-62
2022/10/08 02:32:53;;;;;;;;;1.00;1.00;;;;;14.33;62.45;101419.44;5021929;28;44889;-69
2022/10/08 02:35:35;;;;;;;;;3.33;2.00;;;;;14.31;63.08;101420.47;5033544;28;46139;-61
2022/10/08 02:38:23;;;;;;;;;1.33;1.33;;;;;14.27;63.09;101417.09;5026574;28;45355;-65
2022/10/08 02:40:53;;;;;;;;;0.00;0.00;;;;;14.28;63.29;101421.50;5031730;28;45322;-63
2022/10/08 02:43:27;;;;;;;;;1.00;1.00;;;;;14.27;63.25;101424.28;5032926;28;45305;-63
2022/10/08 02:46:02;;;;;;;;;5.00;1.33;;;;;14.27;63.75;101429.63;5027717;28;45479;-62
2022/10/08 02:48:32;;;;;;;;;1.67;1.67;;;;;14.21;63.73;101416.63;5031902;28;45274;-63
2022/10/08 02:51:05;;;;;;;;;2.00;2.00;;;;;14.23;63.43;101420.06;5037787;28;45410;-60
2022/10/08 02:53:35;;;;;;;;;1.33;1.33;;;;;14.23;64.33;101425.41;5028342;28;45434;-56
2022/10/08 02:56:23;;;;;;;;;2.00;2.00;;;;;14.19;64.36;101424.72;5033408;28;45442;-54
2022/10/08 02:58:49;;;;;;;;;2.00;2.00;;;;;14.15;63.93;101409.78;5025866;28;45509;-62
2022/10/08 03:01:25;;;;;;;;;2.00;1.00;;;;;14.18;64.36;101421.16;5027616;28;45371;-62
2022/10/08 03:03:59;;;;;;;;;1.00;1.00;;;;;14.18;64.41;101422.97;5028735;28;45532;-66
2022/10/08 03:06:27;;;;;;;;;3.00;2.00;;;;;14.11;64.69;101408.25;5028494;28;45537;-60
2022/10/08 03:08:58;;;;;;;;;1.33;1.00;;;;;14.17;64.71;101424.78;5027379;28;45531;-59
2022/10/08 03:11:24;;;;;;;;;4.00;2.33;;;;;14.20;64.96;101428.28;5025870;28;45294;-55
2022/10/08 03:13:57;;;;;;;;;1.00;1.00;;;;;14.13;65.56;101404.53;5023919;28;45517;-62
2022/10/08 03:16:26;;;;;;;;;1.00;1.00;;;;;14.18;66.11;101415.81;5013636;28;45420;-58
2022/10/08 03:18:57;;;;;;;;;1.00;1.00;;;;;14.18;66.05;101422.97;5027188;28;45390;-56
2022/10/08 03:21:25;;;;;;;;;3.00;2.00;;;;;14.17;65.90;101422.13;5000331;28;45548;-57
2022/10/08 03:23:50;;;;;;;;;1.00;1.00;;;;;14.15;66.16;101423.16;5023973;28;46190;-64
2022/10/08 03:26:17;;;;;;;;;3.00;2.00;;;;;14.13;67.04;101433.97;5024782;28;46101;-61
2022/10/08 03:28:42;;;;;;;;;2.00;1.00;;;;;14.09;66.91;101426.22;5032690;28;45452;-60
2022/10/08 03:31:09;;;;;;;;;2.00;1.00;;;;;14.05;67.30;101425.50;5032617;28;45315;-51
2022/10/08 03:33:34;;;;;;;;;4.33;2.67;;;;;14.05;68.17;101424.63;5023276;28;45356;-62
2022/10/08 03:36:00;;;;;;;;;1.00;1.00;;;;;14.04;67.59;101431.81;5022997;28;45417;-54
2022/10/08 03:38:25;;;;;;;;;2.00;2.00;;;;;13.96;67.08;101428.72;5016333;28;45424;-61
2022/10/08 03:40:56;;;;;;;;;1.00;1.00;;;;;14.02;67.75;101443.53;4998631;28;45293;-55
2022/10/08 03:43:22;;;;;;;;;0.33;0.33;;;;;13.94;66.80;101446.66;5027903;28;45554;-58
2022/10/08 03:45:51;;;;;;;;;4.00;2.00;;;;;13.90;67.64;101442.44;5027406;28;45430;-60
2022/10/08 03:48:18;;;;;;;;;3.00;1.33;;;;;13.93;67.41;101447.59;5035764;28;45365;-60
2022/10/08 03:51:01;;;;;;;;;1.00;1.00;;;;;13.94;67.93;101459.19;5028746;28;45279;-52
2022/10/08 03:53:30;;;;;;;;;1.00;1.00;;;;;13.93;67.24;101460.09;5014732;28;45587;-52
2022/10/08 03:56:00;;;;;;;;;10.33;6.00;;;;;13.87;67.68;101458.66;5028875;28;46231;-52
2022/10/08 03:58:25;;;;;;;;;2.00;2.00;;;;;13.84;67.38;101453.47;5033186;28;45359;-57
2022/10/08 04:01:07;;;;;;;;;1.67;1.67;;;;;13.86;68.08;101460.47;5020698;28;45454;-60
2022/10/08 04:03:33;;;;;;;;;1.00;1.00;;;;;13.86;67.66;101456.94;5029478;28;45290;-60
2022/10/08 04:05:58;;;;;;;;;2.00;2.00;;;;;13.82;67.72;101466.94;5016244;28;46498;-59
2022/10/08 04:08:25;;;;;;;;;3.33;2.00;;;;;13.84;67.76;101474.88;5016631;28;45403;-59
2022/10/08 04:10:51;;;;;;;;;2.00;2.00;;;;;13.81;68.13;101477.72;5047328;28;45570;-56
2022/10/08 04:13:17;;;;;;;;;2.00;2.00;;;;;13.80;68.14;101478.63;5033625;28;45236;-58
2022/10/08 04:15:44;;;;;;;;;2.67;1.33;;;;;13.80;68.30;101483.97;5018316;28;45481;-59
2022/10/08 04:18:12;;;;;;;;;4.00;2.00;;;;;13.78;68.94;101488.56;5037073;28;45259;-64
2022/10/08 04:20:42;;;;;;;;;3.67;2.00;;;;;13.75;69.16;101486.06;5016807;28;45396;-60
2022/10/08 04:23:08;;;;;;;;;2.00;2.00;;;;;13.73;68.58;101487.97;5029112;28;46699;-56
2022/10/08 04:25:35;;;;;;;;;1.33;1.33;;;;;13.71;69.34;101495.22;5021746;28;45385;-58
2022/10/08 04:28:04;;;;;;;;;2.67;2.67;;;;;13.65;69.89;101485.69;5028189;28;45603;-55
2022/10/08 04:30:31;;;;;;;;;1.00;1.00;;;;;13.63;70.51;101500.09;5033069;28;45479;-60
2022/10/08 04:32:56;;;;;;;;;3.00;1.00;;;;;13.61;70.90;101510.88;5021890;28;45350;-62
2022/10/08 04:35:22;;;;;;;;;1.00;1.00;;;;;13.61;71.51;101504.66;5024057;28;46864;-59
2022/10/08 04:37:47;;;;;;;;;1.00;1.00;;;;;13.64;70.92;101505.34;5019711;28;46068;-61
2022/10/08 04:40:13;;;;;;;;;7.33;2.00;;;;;13.58;70.12;101500.34;5027759;28;45433;-55
2022/10/08 04:42:41;;;;;;;;;1.00;1.00;;;;;13.60;70.98;101508.28;5040001;28;45684;-62
2022/10/08 04:45:07;;;;;;;;;1.00;1.00;;;;;13.57;70.90;101514.66;5023393;28;45498;-58
2022/10/08 04:47:32;;;;;;;;;3.67;2.33;;;;;13.56;71.32;101513.81;5032487;28;45420;-57
2022/10/08 04:49:58;;;;;;;;;1.67;1.33;;;;;13.54;72.45;101521.03;5019731;28;45318;-55
2022/10/08 04:52:23;;;;;;;;;2.33;1.00;;;;;13.53;71.85;101519.28;5017954;28;45776;-55
2022/10/08 04:54:49;;;;;;;;;3.67;3.67;;;;;13.52;71.82;101516.69;5029394;28;45509;-56
2022/10/08 04:57:14;;;;;;;;;5.00;2.00;;;;;13.50;71.87;101511.44;5025021;28;45455;-54
2022/10/08 04:59:40;;;;;;;;;4.00;2.00;;;;;13.45;71.83;101510.84;5025578;28;45398;-59
2022/10/08 05:02:05;;;;;;;;;3.67;1.33;;;;;13.43;72.51;101512.75;5020516;28;45570;-59
2022/10/08 05:04:30;;;;;;;;;5.67;3.67;;;;;13.43;71.94;101522.56;5023794;28;48279;-60
2022/10/08 05:06:56;;;;;;;;;3.00;3.00;;;;;13.41;72.01;101530.66;5030694;28;46065;-65
2022/10/08 05:09:21;;;;;;;;;1.00;1.00;;;;;13.41;72.81;101532.44;5018639;28;45561;-58
2022/10/08 05:11:49;;;;;;;;;6.67;2.00;;;;;13.38;72.55;101528.13;5033781;28;45552;-56
2022/10/08 05:14:14;;;;;;;;;4.00;3.00;;;;;13.36;72.43;101540.72;5015978;28;46295;-54
2022/10/08 05:16:40;;;;;;;;;3.00;1.67;;;;;13.36;72.87;101531.84;5016701;28;45671;-56
2022/10/08 05:19:05;;;;;;;;;2.00;2.00;;;;;13.33;72.25;101532.88;5024366;28;45568;-54
2022/10/08 05:21:31;;;;;;;;;3.00;2.00;;;;;13.34;72.22;101529.25;5023341;28;45581;-54
2022/10/08 05:24:06;;;;;;;;;2.00;2.00;;;;;13.34;72.30;101542.59;5024543;28;46808;-56
2022/10/08 05:26:34;;;;;;;;;1.67;1.67;;;;;13.34;73.25;101544.41;5016238;28;45494;-58
2022/10/08 05:29:00;;;;;;;;;2.00;2.00;;;;;13.30;72.65;101553.53;5021514;28;45477;-57
2022/10/08 05:31:27;;;;;;;;;4.33;3.00;;;;;13.31;73.82;101561.47;5020559;28;45589;-57
2022/10/08 05:33:53;;;;;;;;;3.67;2.00;;;;;13.14;73.32;101521.38;5029510;28;46333;-57
2022/10/08 05:36:24;;;;;;;;;3.00;2.00;;;;;13.30;73.58;101549.06;5035925;28;45468;-56
2022/10/08 05:38:51;;;;;;;;;6.67;2.00;;;;;13.30;73.84;101559.75;5017927;28;45459;-51
2022/10/08 05:41:24;;;;;;;;;6.33;4.33;;;;;13.27;73.61;101552.72;5017756;28;45782;-56
2022/10/08 05:43:52;;;;;;;;;4.00;2.67;;;;;13.23;74.06;101558.31;5018554;28;46093;-58
2022/10/08 05:46:17;;;;;;;;;4.00;2.00;;;;;13.26;74.24;101560.81;5022874;28;45463;-55
2022/10/08 05:48:43;;;;;;;;;2.67;2.00;;;;;13.22;74.38;101564.63;5009548;28;45614;-54
2022/10/08 05:51:11;;;;;;;;;4.67;2.00;;;;;13.21;74.00;101566.41;5018636;28;45415;-57
2022/10/08 05:53:38;;;;;;;;;1.67;1.67;;;;;13.21;74.05;101570.91;5021324;28;45489;-55
2022/10/08 05:56:06;;;;;;;;;3.67;2.00;;;;;13.19;74.91;101559.44;5018196;28;45383;-57
2022/10/08 05:58:33;;;;;;;;;4.00;2.00;;;;;13.17;74.89;101558.63;5019579;28;45247;-54
2022/10/08 06:01:00;;;;;;;;;2.00;2.00;;;;;13.20;74.56;101566.50;5017741;28;45444;-59
2022/10/08 06:03:26;;;;;;;;;1.00;1.00;;;;;13.19;74.87;101562.97;5026861;28;45575;-53
2022/10/08 06:05:53;;;;;;;;;4.00;2.67;;;;;13.17;74.39;101563.97;5017601;28;45801;-53
2022/10/08 06:08:18;;;;;;;;;2.00;2.00;;;;;13.21;74.64;101582.44;5032849;28;45941;-52
2022/10/08 06:11:04;;;;;;;;;6.33;3.67;;;;;13.17;74.64;101586.19;5024597;28;45562;-56
2022/10/08 06:13:29;;;;;;;;;2.33;2.33;;;;;13.19;74.79;101581.66;5008367;28;47305;-51
2022/10/08 06:15:57;;;;;;;;;3.33;2.00;;;;;13.20;75.95;101590.53;5016741;28;45472;-56
2022/10/08 06:18:23;;;;;;;;;1.33;1.33;;;;;13.15;75.05;101588.09;5016331;28;45340;-53
2022/10/08 06:20:49;;;;;;;;;2.00;2.00;;;;;13.20;75.11;101596.75;5013397;28;45474;-53
2022/10/08 06:23:14;;;;;;;;;3.67;3.00;;;;;13.23;75.14;101596.59;5014314;28;45611;-52
2022/10/08 06:25:40;;;;;;;;;3.67;2.00;;;;;13.25;75.48;101610.72;5018726;28;45287;-55
2022/10/08 06:28:05;;;;;;;;;4.67;3.00;;;;;13.24;75.46;101602.78;5018287;28;45418;-55
2022/10/08 06:30:30;;;;;;;;;5.00;3.00;;;;;13.21;76.48;101606.50;5017397;28;45457;-50
2022/10/08 06:32:56;;;;;;;;;3.00;3.00;;;;;13.22;75.54;101620.72;5015380;28;45826;-51
2022/10/08 06:35:21;;;;;;;;;4.00;3.33;;;;;13.23;75.40;101617.94;5017319;28;45305;-51
2022/10/08 06:37:47;;;;;;;;;3.00;3.00;;;;;13.22;74.92;101610.88;5015501;28;45471;-53
2022/10/08 06:40:13;;;;;;;;;3.33;2.00;;;;;13.30;75.13;101623.88;5032865;28;45566;-60
2022/10/08 06:42:38;;;;;;;;;6.00;4.00;;;;;13.30;74.91;101613.19;5014189;28;46439;-53
2022/10/08 06:45:04;;;;;;;;;3.33;2.00;;;;;13.31;74.63;101622.91;5015568;28;45538;-55
2022/10/08 06:47:29;;;;;;;;;3.00;3.00;;;;;13.30;74.61;101623.88;5017676;28;45415;-53
2022/10/08 06:49:55;;;;;;;;;6.67;2.33;;;;;13.33;74.35;101626.38;5016687;28;45540;-62
2022/10/08 06:52:20;;;;;;;;;4.67;3.33;;;;;13.34;74.98;101641.47;5031284;28;47909;-59
2022/10/08 06:54:45;;;;;;;;;3.00;2.00;;;;;13.35;75.44;101639.66;5015968;28;45623;-63
2022/10/08 06:57:11;;;;;;;;;3.33;2.00;;;;;13.35;75.65;101639.66;5015558;28;45517;-64
2022/10/08 06:59:36;;;;;;;;;4.33;3.00;;;;;13.36;74.87;101641.38;5016786;28;45269;-58
2022/10/08 07:02:02;;;;;;;;;7.00;3.00;;;;;13.39;76.15;101647.41;5014839;28;47432;-63
2022/10/08 07:04:27;;;;;;;;;3.67;3.00;;;;;13.39;74.91;101655.44;5016249;28;45357;-59
2022/10/08 07:06:52;;;;;;;;;4.67;3.00;;;;;13.37;74.91;101646.63;5015857;28;45658;-62
2022/10/08 07:09:18;;;;;;;;;5.00;3.67;;;;;13.44;74.95;101656.09;5016220;28;45506;-56
2022/10/08 07:11:43;;;;;;;;;5.67;4.00;;;;;13.49;74.99;101662.03;5021132;28;46372;-58
2022/10/08 07:14:09;;;;;;;;;3.00;3.00;;;;;13.48;74.77;101662.13;5030760;28;45503;-57
2022/10/08 07:16:34;;;;;;;;;2.00;2.00;;;;;13.53;74.76;101662.75;4997108;28;45356;-50
2022/10/08 07:19:00;;;;;;;;;2.00;2.00;;;;;13.42;74.39;101639.28;5020348;28;45663;-53
2022/10/08 07:21:27;;;;;;;;;5.67;3.00;;;;;13.53;74.80;101674.31;5015719;28;45363;-54
2022/10/08 07:23:52;;;;;;;;;2.00;2.00;;;;;13.53;74.19;101673.44;5021404;28;45492;-54
2022/10/08 07:26:22;;;;;;;;;4.67;3.00;;;;;13.52;74.55;101667.22;5032997;28;45327;-60
2022/10/08 07:28:49;;;;;;;;;4.67;2.00;;;;;13.51;74.45;101670.84;5029344;28;45548;-57
2022/10/08 07:31:19;;;;;;;;;3.33;3.33;;;;;13.58;74.33;101682.09;5016643;28;46119;-54
2022/10/08 07:33:45;;;;;;;;;3.67;3.00;;;;;13.58;73.98;101682.97;5025461;28;45465;-59
2022/10/08 07:36:13;;;;;;;;;4.00;4.00;;;;;13.53;74.21;101681.44;5035066;28;45439;-61
2022/10/08 07:38:39;;;;;;;;;1.00;1.00;;;;;13.62;74.38;101696.16;5026743;28;45478;-48
2022/10/08 07:41:06;;;;;;;;;5.00;3.67;;;;;13.63;74.24;101700.56;5016277;28;45381;-53
2022/10/08 07:43:31;;;;;;;;;5.00;3.00;;;;;13.65;74.19;101696.00;5017691;28;45450;-51
2022/10/08 07:45:57;;;;;;;;;5.00;4.00;;;;;13.57;74.31;101686.59;5016336;28;45442;-55
2022/10/08 07:48:22;;;;;;;;;2.33;2.00;;;;;13.65;74.14;101694.19;4995318;28;45355;-58
2022/10/08 07:50:48;;;;;;;;;6.33;4.00;;;;;13.67;73.87;101696.78;5015530;28;45450;-52
2022/10/08 07:53:14;;;;;;;;;8.67;7.00;;;;;13.76;74.81;101718.56;5023442;28;45613;-62
2022/10/08 07:55:39;;;;;;;;;6.33;3.33;;;;;13.76;75.27;101712.38;5017337;28;45601;-64
2022/10/08 07:58:05;;;;;;;;;7.00;7.00;;;;;13.77;74.62;101716.75;5016205;28;45474;-59
2022/10/08 08:00:31;;;;;;;;;10.00;7.67;;;;;13.83;74.23;101727.16;5015339;28;46007;-60
2022/10/08 08:02:56;;;;;;;;;4.00;3.00;;;;;13.85;73.83;101722.59;5016594;28;45465;-55
2022/10/08 08:05:22;;;;;;;;;4.00;4.00;;;;;13.88;74.58;101730.44;5029204;27;45252;-51
2022/10/08 08:07:47;;;;;;;;;12.00;5.00;;;;;13.90;74.15;101731.22;5016319;28;45455;-51
2022/10/08 08:10:13;;;;;;;;;5.00;3.33;;;;;13.95;73.27;101737.22;5015884;28;45371;-57
2022/10/08 08:12:38;;;;;;;;;9.00;7.00;;;;;14.00;74.01;101731.63;5017085;28;45319;-58
2022/10/08 08:15:04;;;;;;;;;5.00;5.00;;;;;14.00;73.75;101732.50;5016320;28;45318;-52
2022/10/08 08:17:30;;;;;;;;;5.00;5.00;;;;;14.08;72.79;101738.31;5020504;28;45584;-53
2022/10/08 08:19:55;;;;;;;;;4.00;3.00;;;;;14.09;73.36;101741.84;5035701;28;45319;-55
2022/10/08 08:22:20;;;;;;;;;9.67;5.67;;;;;14.05;74.00;101751.81;5024203;28;45490;-64
2022/10/08 08:24:46;;;;;;;;;7.67;5.00;;;;;14.05;74.69;101740.25;5040161;28;45454;-62
2022/10/08 08:27:11;;;;;;;;;8.67;7.67;;;;;14.09;73.07;101753.41;5030299;28;45572;-61
2022/10/08 08:29:37;;;;;;;;;12.67;6.00;;;;;14.17;73.43;101759.22;5051028;28;47125;-59
2022/10/08 08:32:02;;;;;;;;;8.00;8.00;;;;;14.16;73.41;101765.50;5035822;28;45440;-60
2022/10/08 08:34:29;;;;;;;;;5.67;4.00;;;;;14.19;72.97;101769.81;5035500;28;45453;-59
2022/10/08 08:36:54;;;;;;;;;6.33;6.00;;;;;14.27;73.54;101777.47;5035971;28;45506;-59
2022/10/08 08:39:25;;;;;;;;;8.00;5.33;;;;;14.34;73.33;101773.53;5035722;28;45413;-56
2022/10/08 08:42:25;;;;;;;;;9.67;5.67;;;;;14.42;72.05;101774.84;5035287;28;45440;-56
2022/10/08 08:45:00;;;;;;;;;8.33;8.00;;;;;14.49;72.06;101778.09;5034015;28;45352;-57
2022/10/08 08:47:34;;;;;;;;;11.00;8.00;;;;;14.57;72.07;101786.56;5035377;28;45442;-59
2022/10/08 08:50:02;;;;;;;;;5.00;5.00;;;;;14.62;71.95;101779.16;5047841;28;46674;-61
2022/10/08 08:52:32;;;;;;;;;8.67;6.67;;;;;14.73;70.79;101791.97;5025272;28;45193;-58
2022/10/08 08:55:10;;;;;;;;;9.00;9.00;;;;;14.84;70.75;101788.69;5013704;28;45518;-59
2022/10/08 08:57:43;;;;;;;;;9.00;6.00;;;;;14.98;70.34;101781.66;5015051;28;45605;-57
2022/10/08 09:00:18;;;;;;;;;10.67;6.00;;;;;15.10;69.86;101785.44;5030950;28;46195;-57
2022/10/08 09:03:11;;;;;;;;;8.33;6.00;;;;;15.22;69.66;101792.78;5037225;28;45319;-51
2022/10/08 09:05:41;;;;;;;;;9.33;7.33;;;;;15.34;69.23;101785.88;5021338;28;46421;-54
2022/10/08 09:08:13;;;;;;;;;6.33;5.67;;;;;15.41;67.45;101778.34;5030230;28;45653;-60
2022/10/08 09:10:47;;;;;;;;;7.00;5.00;;;;;15.42;67.60;101791.66;5032445;28;45548;-63
2022/10/08 09:13:17;;;;;;;;;5.67;4.00;;;;;15.56;67.52;101785.50;5038186;28;45860;-58
2022/10/08 09:15:44;;;;;;;;;8.33;6.33;;;;;15.78;66.96;101794.06;5035144;28;45288;-59
2022/10/08 09:18:13;;;;;;;;;5.33;4.00;;;;;15.85;66.33;101792.75;5034711;28;45215;-56
2022/10/08 09:20:39;;;;;;;;;4.67;4.67;;;;;15.89;65.78;101791.63;5015400;28;47287;-55
2022/10/08 09:23:16;;;;;;;;;5.00;5.00;;;;;15.88;64.42;101795.22;5004258;28;45396;-55
2022/10/08 09:25:47;;;;;;;;;4.00;4.00;;;;;15.83;65.67;101791.97;4998728;28;45377;-57
2022/10/08 09:28:41;;;;;;;;;5.00;5.00;;;;;15.97;65.45;101796.53;4998715;28;45397;-59
2022/10/08 09:31:46;;;;;;;;;5.33;5.33;;;;;16.11;64.78;101806.44;5013498;28;45410;-56
2022/10/08 09:34:12;;;;;;;;;6.00;4.00;;;;;16.24;63.47;101802.03;4998145;28;45546;-56
2022/10/08 09:36:41;;;;;;;;;4.00;3.00;;;;;16.36;62.01;101812.03;4998583;28;45323;-59
2022/10/08 09:39:26;;;;;;;;;3.00;3.00;;;;;16.55;62.08;101810.94;4998983;28;45285;-59
2022/10/08 09:42:06;;;;;;;;;6.00;4.67;;;;;16.65;61.85;101815.63;4998367;28;46317;-60
2022/10/08 09:44:42;;;;;;;;;12.67;6.33;;;;;16.66;61.82;101813.78;5013420;28;45391;-59
2022/10/08 09:47:11;;;;;;;;;3.00;3.00;;;;;16.61;60.67;101815.91;4997926;28;45435;-62
2022/10/08 09:49:40;;;;;;;;;7.33;3.33;;;;;16.56;59.53;101813.53;4998549;28;45317;-56
2022/10/08 09:52:22;;;;;;;;;3.00;2.33;;;;;16.61;60.03;101816.78;4998100;28;46113;-57
2022/10/08 09:55:01;;;;;;;;;3.00;3.00;;;;;16.71;59.54;101817.09;4999133;28;45333;-61
2022/10/08 09:57:28;;;;;;;;;3.00;3.00;;;;;16.63;57.50;101808.63;5009564;28;45247;-56
2022/10/08 10:00:01;;;;;;;;;3.00;2.00;;;;;16.74;57.25;101822.28;5017424;28;45465;-55
2022/10/08 10:02:32;;;;;;;;;1.00;1.00;;;;;16.85;58.32;101813.56;5018290;28;45370;-56
2022/10/08 10:05:00;;;;;;;;;2.00;2.00;;;;;16.93;57.39;101817.50;5018192;28;45139;-59
2022/10/08 10:07:36;;;;;;;;;1.00;1.00;;;;;17.01;56.71;101815.16;5018389;28;45339;-59
2022/10/08 10:10:04;;;;;;;;;2.00;1.00;;;;;17.22;55.62;101812.09;5033614;28;45386;-58
2022/10/08 10:12:34;;;;;;;;;1.00;1.00;;;;;17.39;55.42;101811.84;5016920;28;46181;-58
2022/10/08 10:15:10;;;;;;;;;3.00;2.00;;;;;17.44;55.56;101801.63;5018038;28;45443;-56
2022/10/08 10:17:44;;;;;;;;;2.00;1.00;;;;;17.31;53.03;101811.47;5017671;28;45349;-59
2022/10/08 10:20:32;;;;;;;;;3.67;2.00;;;;;17.41;53.78;101828.72;5017559;28;45517;-55
2022/10/08 10:23:00;;;;;;;;;1.67;1.67;;;;;17.63;53.47;101815.59;5015173;28;46374;-56
2022/10/08 10:25:46;;;;;;;;;5.33;3.67;;;;;17.90;53.85;101809.38;5016517;28;45312;-57
2022/10/08 10:28:32;;;;;;;;;1.00;0.67;;;;;17.86;52.56;101813.25;5016052;28;45402;-55
2022/10/08 10:31:02;;;;;;;;;3.00;2.00;;;;;17.85;52.40;101825.84;5017924;28;45316;-52
2022/10/08 10:33:32;;;;;;;;;0.00;0.00;;;;;17.93;51.63;101820.78;5016180;28;45449;-57
2022/10/08 10:36:05;;;;;;;;;1.33;1.33;;;;;17.97;51.44;101821.47;5017557;28;45383;-56
2022/10/08 10:38:37;;;;;;;;;2.00;2.00;;;;;18.00;52.64;101815.00;5017309;28;45448;-60
2022/10/08 10:41:16;;;;;;;;;4.67;1.00;;;;;18.21;52.29;101818.91;5017655;28;45514;-58
2022/10/08 10:43:47;;;;;;;;;3.67;1.00;;;;;18.40;51.15;101810.44;5017150;28;45396;-60
2022/10/08 10:46:30;;;;;;;;;2.00;2.00;;;;;18.47;50.47;101809.03;5033460;28;45462;-58
2022/10/08 10:48:56;;;;;;;;;2.00;1.00;;;;;18.46;51.41;101818.06;5018589;28;45283;-60
2022/10/08 10:51:36;;;;;;;;;2.33;1.67;;;;;18.40;50.66;101829.28;5017955;28;45501;-57
2022/10/08 10:54:14;;;;;;;;;3.00;1.00;;;;;18.51;50.84;101826.72;5016695;28;46355;-56
2022/10/08 10:56:48;;;;;;;;;2.33;1.67;;;;;18.52;49.68;101823.06;5016922;28;45472;-57
2022/10/08 10:59:30;;;;;;;;;4.67;3.00;;;;;18.75;48.99;101816.94;5016314;28;45419;-57
2022/10/08 11:02:18;;;;;;;;;1.33;1.33;;;;;18.78;50.58;101824.81;5017249;28;45381;-53
2022/10/08 11:04:54;;;;;;;;;2.67;2.00;;;;;18.88;49.86;101824.13;5016798;28;46222;-52
2022/10/08 11:07:39;;;;;;;;;5.00;4.00;;;;;18.84;50.24;101824.34;5016783;28;45268;-57
2022/10/08 11:10:39;;;;;;;;;2.33;1.33;;;;;18.72;49.17;101825.22;5016845;28;45356;-53
2022/10/08 11:13:38;;;;;;;;;6.00;1.33;;;;;18.68;48.29;101823.72;5031980;28;45418;-56
2022/10/08 11:16:41;;;;;;;;;1.67;1.67;;;;;18.75;48.14;101816.94;5031563;28;45584;-52
2022/10/08 11:19:26;;;;;;;;;5.00;1.67;;;;;19.06;47.92;101812.91;5011552;28;45284;-51
2022/10/08 11:22:13;;;;;;;;;4.00;2.67;;;;;18.90;46.81;101823.06;5031778;28;45481;-53
2022/10/08 11:24:56;;;;;;;;;4.00;2.67;;;;;19.06;47.30;101829.09;5015018;28;45332;-56
2022/10/08 11:27:48;;;;;;;;;4.67;3.00;;;;;19.13;47.79;101818.69;5016426;28;45359;-56
2022/10/08 11:30:35;;;;;;;;;3.00;1.00;;;;;19.19;44.71;101818.28;5016256;28;45320;-53
2022/10/08 11:33:02;;;;;;;;;0.33;0.33;;;;;19.34;44.64;101816.28;5014863;28;45454;-55
2022/10/08 11:35:38;;;;;;;;;3.00;3.00;;;;;19.29;44.98;101819.31;5017930;28;45261;-57
2022/10/08 11:38:15;;;;;;;;;3.00;1.00;;;;;19.39;44.41;101809.56;5017274;28;45268;-57
2022/10/08 11:40:48;;;;;;;;;0.00;0.00;;;;;19.53;43.91;101810.38;5017703;28;45267;-58